Terminal Aerodrome Forecast
Issued by NWS

Current Version | Previous Version | Text Only | Print | Product List | Glossary On
Versions: 1 2 3 4 5 6 7 8 9 10 11 12 13 14 15 16 17 18 19 20 21 22 23 24 25 26 27 28 29 30 31 32
350
FTUS44 KOHX 271129
TAFCKV
TAF
KCKV 271129Z 2712/2812 21006KT P6SM SCT035 BKN070
     FM271500 23007KT 5SM -SHRA VCTS BKN030CB OVC060
     FM271700 23008KT P6SM BKN050
     FM280300 20005KT 4SM TSRA BR BKN025CB OVC070=

USA.gov is the U.S. government's official web portal to all federal, state and local government web resources and services.